ZMUB/ULN METAR and TAF weather

Enter ICAO airport designator
Station Type Date Time Source
ZMUB METAR 2019/08/21 22:30 UTC NOAA

ZMUB 212230Z VRB01MPS CAVOK 05/04 Q1020 NOSIG RMK QFE657.0 92


Station Type Date Time Source
ZMUB Decoded METAR 2019/08/21 22:30 UTC NOAA

Station name not available
Aug 21, 2019 - 06:30 PM EDT / 2019.08.21 2230 UTC
Wind: Variable at 2 MPH (2 KT):0
Visibility: greater than 7 mile(s):0
Temperature: 41 F (5 C)
Dew Point: 39 F (4 C)
Relative Humidity: 93%
Pressure (altimeter): 30.12 in. Hg (1020 hPa)
ob: ZMUB 212230Z VRB01MPS CAVOK 05/04 Q1020 NOSIG RMK QFE657.0 92
cycle: 22

Station Type Date Time Source
ZMUB TAF 2019/08/21 18:33 UTC NOAA

TAF TAF ZMUB 211630Z 2118/2224 VRB02MPS 9999 FEW030CB SCT033 TN06/2121Z TX21/2207Z

Example: see airport list